sensor_id;sensor_type;location;lat;lon;timestamp;pressure;altitude;pressure_sealevel;temperature;humidity
12763;BME280;6445;52.490;13.378;2023-04-25T00:00:30;46570.34;;;-146.10;100.00
12763;BME280;6445;52.490;13.378;2023-04-25T00:02:55;46945.94;;;-146.10;100.00
12763;BME280;6445;52.490;13.378;2023-04-25T00:05:26;46977.91;;;-146.10;100.00
12763;BME280;6445;52.490;13.378;2023-04-25T00:07:51;47103.78;;;-146.10;100.00
12763;BME280;6445;52.490;13.378;2023-04-25T00:10:17;47433.47;;;-146.10;100.00
12763;BME280;6445;52.490;13.378;2023-04-25T00:12:42;47697.25;;;-146.10;100.00
12763;BME280;6445;52.490;13.378;2023-04-25T00:15:08;48058.97;;;-146.10;100.00
12763;BME280;6445;52.490;13.378;2023-04-25T00:17:34;48384.72;;;-146.10;100.00
12763;BME280;6445;52.490;13.378;2023-04-25T00:20:00;48600.59;;;-146.10;100.00
12763;BME280;6445;52.490;13.378;2023-04-25T00:22:25;48852.44;;;-146.10;100.00
12763;BME280;6445;52.490;13.378;2023-04-25T00:24:51;49136.28;;;-146.10;100.00
12763;BME280;6445;52.490;13.378;2023-04-25T00:27:18;49254.25;;;-146.10;100.00
12763;BME280;6445;52.490;13.378;2023-04-25T00:29:43;49376.19;;;-146.10;100.00
12763;BME280;6445;52.490;13.378;2023-04-25T00:32:08;49432.16;;;-146.10;100.00
12763;BME280;6445;52.490;13.378;2023-04-25T00:34:34;49492.16;;;-146.10;100.00
12763;BME280;6445;52.490;13.378;2023-04-25T00:36:59;49680.06;;;-146.10;100.00
12763;BME280;6445;52.490;13.378;2023-04-25T00:39:26;49708.06;;;-146.10;100.00
12763;BME280;6445;52.490;13.378;2023-04-25T00:41:52;49758.03;;;-146.10;100.00
12763;BME280;6445;52.490;13.378;2023-04-25T00:44:20;49784.03;;;-146.10;100.00
12763;BME280;6445;52.490;13.378;2023-04-25T00:46:47;49852.03;;;-146.10;100.00
12763;BME280;6445;52.490;13.378;2023-04-25T00:49:12;49898.00;;;-146.10;100.00
12763;BME280;6445;52.490;13.378;2023-04-25T00:51:40;49962.00;;;-146.10;100.00
12763;BME280;6445;52.490;13.378;2023-04-25T00:54:06;50049.97;;;-146.10;100.00
12763;BME280;6445;52.490;13.378;2023-04-25T00:56:31;50131.94;;;-146.10;100.00
12763;BME280;6445;52.490;13.378;2023-04-25T00:58:56;50099.94;;;-146.10;100.00
12763;BME280;6445;52.490;13.378;2023-04-25T01:01:22;50175.94;;;-146.10;100.00
12763;BME280;6445;52.490;13.378;2023-04-25T01:03:49;50141.94;;;-146.10;100.00
12763;BME280;6445;52.490;13.378;2023-04-25T01:06:16;50197.94;;;-146.10;100.00
12763;BME280;6445;52.490;13.378;2023-04-25T01:08:42;50275.91;;;-146.10;100.00
12763;BME280;6445;52.490;13.378;2023-04-25T01:11:07;50289.91;;;-146.10;100.00
12763;BME280;6445;52.490;13.378;2023-04-25T01:13:33;50241.94;;;-146.10;100.00
12763;BME280;6445;52.490;13.378;2023-04-25T01:15:59;50339.91;;;-146.10;100.00
12763;BME280;6445;52.490;13.378;2023-04-25T01:18:25;50331.91;;;-146.10;100.00
12763;BME280;6445;52.490;13.378;2023-04-25T01:20:51;50391.91;;;-146.10;100.00
12763;BME280;6445;52.490;13.378;2023-04-25T01:23:17;50361.91;;;-146.10;100.00
12763;BME280;6445;52.490;13.378;2023-04-25T01:25:43;50359.91;;;-146.10;100.00
12763;BME280;6445;52.490;13.378;2023-04-25T01:28:08;50501.88;;;-146.10;100.00
12763;BME280;6445;52.490;13.378;2023-04-25T01:30:34;50433.88;;;-146.10;100.00
12763;BME280;6445;52.490;13.378;2023-04-25T01:33:00;50475.88;;;-146.10;100.00
12763;BME280;6445;52.490;13.378;2023-04-25T01:35:25;50529.88;;;-146.10;100.00
12763;BME280;6445;52.490;13.378;2023-04-25T01:37:51;50535.88;;;-146.10;100.00
12763;BME280;6445;52.490;13.378;2023-04-25T01:40:17;50595.88;;;-146.10;100.00
12763;BME280;6445;52.490;13.378;2023-04-25T01:42:44;50575.88;;;-146.10;100.00
12763;BME280;6445;52.490;13.378;2023-04-25T01:45:10;50625.88;;;-146.10;100.00
12763;BME280;6445;52.490;13.378;2023-04-25T01:47:36;50603.88;;;-146.10;100.00
12763;BME280;6445;52.490;13.378;2023-04-25T01:50:03;50641.88;;;-146.10;100.00
12763;BME280;6445;52.490;13.378;2023-04-25T01:52:29;50655.88;;;-146.10;100.00
12763;BME280;6445;52.490;13.378;2023-04-25T01:54:56;50675.88;;;-146.10;100.00
12763;BME280;6445;52.490;13.378;2023-04-25T01:57:22;50731.84;;;-146.10;100.00
12763;BME280;6445;52.490;13.378;2023-04-25T01:59:47;50767.84;;;-146.10;100.00
12763;BME280;6445;52.490;13.378;2023-04-25T02:02:13;50717.84;;;-146.10;100.00
12763;BME280;6445;52.490;13.378;2023-04-25T02:04:38;50797.84;;;-146.10;100.00
12763;BME280;6445;52.490;13.378;2023-04-25T02:07:03;50799.84;;;-146.10;100.00
12763;BME280;6445;52.490;13.378;2023-04-25T02:09:28;50819.84;;;-146.10;100.00
12763;BME280;6445;52.490;13.378;2023-04-25T02:11:54;50837.84;;;-146.10;100.00
12763;BME280;6445;52.490;13.378;2023-04-25T02:14:19;50935.84;;;-146.10;100.00
12763;BME280;6445;52.490;13.378;2023-04-25T02:16:45;50979.84;;;-146.10;100.00
12763;BME280;6445;52.490;13.378;2023-04-25T02:19:11;50935.84;;;-146.10;100.00
12763;BME280;6445;52.490;13.378;2023-04-25T02:21:36;51001.84;;;-146.10;100.00
12763;BME280;6445;52.490;13.378;2023-04-25T02:24:02;50989.84;;;-146.10;100.00
12763;BME280;6445;52.490;13.378;2023-04-25T02:26:27;51009.84;;;-146.10;100.00
12763;BME280;6445;52.490;13.378;2023-04-25T02:28:52;51033.84;;;-146.10;100.00
12763;BME280;6445;52.490;13.378;2023-04-25T02:31:17;51055.84;;;-146.10;100.00
12763;BME280;6445;52.490;13.378;2023-04-25T02:33:43;51083.84;;;-146.10;100.00
12763;BME280;6445;52.490;13.378;2023-04-25T02:36:08;51157.84;;;-146.10;100.00
12763;BME280;6445;52.490;13.378;2023-04-25T02:38:34;51137.84;;;-146.10;100.00
12763;BME280;6445;52.490;13.378;2023-04-25T02:40:59;51123.84;;;-146.10;100.00
12763;BME280;6445;52.490;13.378;2023-04-25T02:43:24;51101.84;;;-146.10;100.00
12763;BME280;6445;52.490;13.378;2023-04-25T02:45:50;51169.84;;;-146.10;100.00
12763;BME280;6445;52.490;13.378;2023-04-25T02:48:15;51127.84;;;-146.10;100.00
12763;BME280;6445;52.490;13.378;2023-04-25T02:50:40;51185.84;;;-146.10;100.00
12763;BME280;6445;52.490;13.378;2023-04-25T02:53:05;51205.84;;;-146.10;100.00
12763;BME280;6445;52.490;13.378;2023-04-25T02:55:31;51245.84;;;-146.10;100.00
12763;BME280;6445;52.490;13.378;2023-04-25T02:57:56;51209.84;;;-146.10;100.00
12763;BME280;6445;52.490;13.378;2023-04-25T03:00:21;51277.84;;;-146.10;100.00
12763;BME280;6445;52.490;13.378;2023-04-25T03:02:47;51251.84;;;-146.10;100.00
12763;BME280;6445;52.490;13.378;2023-04-25T03:05:12;51321.84;;;-146.10;100.00
12763;BME280;6445;52.490;13.378;2023-04-25T03:07:38;51289.84;;;-146.10;100.00
12763;BME280;6445;52.490;13.378;2023-04-25T03:10:07;51311.84;;;-146.10;100.00
12763;BME280;6445;52.490;13.378;2023-04-25T03:12:33;51337.84;;;-146.10;100.00
12763;BME280;6445;52.490;13.378;2023-04-25T03:14:58;51357.88;;;-146.10;100.00
12763;BME280;6445;52.490;13.378;2023-04-25T03:17:23;51387.88;;;-146.10;100.00
12763;BME280;6445;52.490;13.378;2023-04-25T03:19:48;51389.88;;;-146.10;100.00
12763;BME280;6445;52.490;13.378;2023-04-25T03:22:14;51355.88;;;-146.10;100.00
12763;BME280;6445;52.490;13.378;2023-04-25T03:24:39;51393.88;;;-146.10;100.00
12763;BME280;6445;52.490;13.378;2023-04-25T03:27:05;51389.88;;;-146.10;100.00
12763;BME280;6445;52.490;13.378;2023-04-25T03:29:30;51441.88;;;-146.10;100.00
12763;BME280;6445;52.490;13.378;2023-04-25T03:31:55;51509.88;;;-146.10;100.00
12763;BME280;6445;52.490;13.378;2023-04-25T03:34:20;51527.88;;;-146.10;100.00
12763;BME280;6445;52.490;13.378;2023-04-25T03:36:46;51581.88;;;-146.10;100.00
12763;BME280;6445;52.490;13.378;2023-04-25T03:39:11;51573.88;;;-146.10;100.00
12763;BME280;6445;52.490;13.378;2023-04-25T03:41:37;51573.88;;;-146.10;100.00
12763;BME280;6445;52.490;13.378;2023-04-25T03:44:02;51583.88;;;-146.10;100.00
12763;BME280;6445;52.490;13.378;2023-04-25T03:46:27;51605.88;;;-146.10;100.00
12763;BME280;6445;52.490;13.378;2023-04-25T03:48:52;51575.88;;;-146.10;100.00
12763;BME280;6445;52.490;13.378;2023-04-25T03:51:18;51525.88;;;-146.10;100.00
12763;BME280;6445;52.490;13.378;2023-04-25T03:53:43;51563.88;;;-146.10;100.00
12763;BME280;6445;52.490;13.378;2023-04-25T03:56:08;51565.88;;;-146.10;100.00
12763;BME280;6445;52.490;13.378;2023-04-25T03:58:34;51651.91;;;-146.10;100.00
12763;BME280;6445;52.490;13.378;2023-04-25T04:01:00;51675.91;;;-146.10;100.00
12763;BME280;6445;52.490;13.378;2023-04-25T04:03:27;51641.91;;;-146.10;100.00
12763;BME280;6445;52.490;13.378;2023-04-25T04:05:53;51623.91;;;-146.10;100.00
12763;BME280;6445;52.490;13.378;2023-04-25T04:08:18;51691.91;;;-146.10;100.00
12763;BME280;6445;52.490;13.378;2023-04-25T04:10:43;51623.91;;;-146.10;100.00
12763;BME280;6445;52.490;13.378;2023-04-25T04:13:08;51605.88;;;-146.10;100.00
12763;BME280;6445;52.490;13.378;2023-04-25T04:15:34;51685.91;;;-146.10;100.00
12763;BME280;6445;52.490;13.378;2023-04-25T04:17:59;51797.91;;;-146.10;100.00
12763;BME280;6445;52.490;13.378;2023-04-25T04:20:28;51719.91;;;-146.10;100.00
12763;BME280;6445;52.490;13.378;2023-04-25T04:22:54;51803.94;;;-146.10;100.00
12763;BME280;6445;52.490;13.378;2023-04-25T04:25:19;51781.91;;;-146.10;100.00
12763;BME280;6445;52.490;13.378;2023-04-25T04:27:44;51873.94;;;-146.10;100.00
12763;BME280;6445;52.490;13.378;2023-04-25T04:30:11;51751.91;;;-146.10;100.00
12763;BME280;6445;52.490;13.378;2023-04-25T04:32:37;51853.94;;;-146.10;100.00
12763;BME280;6445;52.490;13.378;2023-04-25T04:35:02;51737.91;;;-146.10;100.00
12763;BME280;6445;52.490;13.378;2023-04-25T04:37:29;51841.94;;;-146.10;100.00
12763;BME280;6445;52.490;13.378;2023-04-25T04:39:55;51765.91;;;-146.10;100.00
12763;BME280;6445;52.490;13.378;2023-04-25T04:42:20;51757.91;;;-146.10;100.00
12763;BME280;6445;52.490;13.378;2023-04-25T04:44:46;51815.94;;;-146.10;100.00
12763;BME280;6445;52.490;13.378;2023-04-25T04:47:11;51809.94;;;-146.10;100.00
12763;BME280;6445;52.490;13.378;2023-04-25T04:49:37;51897.94;;;-146.10;100.00
12763;BME280;6445;52.490;13.378;2023-04-25T04:52:02;51805.94;;;-146.10;100.00
12763;BME280;6445;52.490;13.378;2023-04-25T04:54:28;51875.94;;;-146.10;100.00
12763;BME280;6445;52.490;13.378;2023-04-25T04:56:53;51977.97;;;-146.10;100.00
12763;BME280;6445;52.490;13.378;2023-04-25T04:59:18;51923.94;;;-146.10;100.00
12763;BME280;6445;52.490;13.378;2023-04-25T05:01:44;51971.97;;;-146.10;100.00
12763;BME280;6445;52.490;13.378;2023-04-25T05:04:09;52120.00;;;-146.10;100.00
12763;BME280;6445;52.490;13.378;2023-04-25T05:06:34;52017.97;;;-146.10;100.00
12763;BME280;6445;52.490;13.378;2023-04-25T05:08:59;52076.00;;;-146.10;100.00
12763;BME280;6445;52.490;13.378;2023-04-25T05:11:25;52146.00;;;-146.10;100.00
12763;BME280;6445;52.490;13.378;2023-04-25T05:13:51;52160.00;;;-146.10;100.00
12763;BME280;6445;52.490;13.378;2023-04-25T05:16:17;52200.03;;;-146.10;100.00
12763;BME280;6445;52.490;13.378;2023-04-25T05:18:42;52434.09;;;-146.10;100.00
12763;BME280;6445;52.490;13.378;2023-04-25T05:21:07;52428.09;;;-146.10;100.00
12763;BME280;6445;52.490;13.378;2023-04-25T05:23:32;52484.13;;;-146.10;100.00
12763;BME280;6445;52.490;13.378;2023-04-25T05:25:58;52558.16;;;-146.10;100.00
12763;BME280;6445;52.490;13.378;2023-04-25T05:28:23;52556.16;;;-146.10;100.00
12763;BME280;6445;52.490;13.378;2023-04-25T05:30:48;52536.13;;;-146.10;100.00
12763;BME280;6445;52.490;13.378;2023-04-25T05:33:14;52582.16;;;-146.10;100.00
12763;BME280;6445;52.490;13.378;2023-04-25T05:35:39;52470.13;;;-146.10;100.00
12763;BME280;6445;52.490;13.378;2023-04-25T05:38:05;52504.13;;;-146.10;100.00
12763;BME280;6445;52.490;13.378;2023-04-25T05:40:30;52248.03;;;-146.10;100.00
12763;BME280;6445;52.490;13.378;2023-04-25T05:42:55;52228.03;;;-146.10;100.00
12763;BME280;6445;52.490;13.378;2023-04-25T05:45:20;52278.03;;;-146.10;100.00
12763;BME280;6445;52.490;13.378;2023-04-25T05:47:46;52192.03;;;-146.10;100.00
12763;BME280;6445;52.490;13.378;2023-04-25T05:50:11;52078.00;;;-146.10;100.00
12763;BME280;6445;52.490;13.378;2023-04-25T05:52:36;52494.13;;;-146.10;100.00
12763;BME280;6445;52.490;13.378;2023-04-25T05:55:01;52594.16;;;-146.10;100.00
12763;BME280;6445;52.490;13.378;2023-04-25T05:57:27;53028.34;;;-146.10;100.00
12763;BME280;6445;52.490;13.378;2023-04-25T05:59:53;53220.47;;;-146.10;100.00
12763;BME280;6445;52.490;13.378;2023-04-25T06:02:19;53288.50;;;-146.10;100.00
12763;BME280;6445;52.490;13.378;2023-04-25T06:04:45;53222.47;;;-146.10;100.00
12763;BME280;6445;52.490;13.378;2023-04-25T06:07:11;53522.63;;;-146.10;100.00
12763;BME280;6445;52.490;13.378;2023-04-25T06:09:36;53498.63;;;-146.10;100.00
12763;BME280;6445;52.490;13.378;2023-04-25T06:12:01;53480.63;;;-146.10;100.00
12763;BME280;6445;52.490;13.378;2023-04-25T06:14:27;53418.56;;;-146.10;100.00
12763;BME280;6445;52.490;13.378;2023-04-25T06:16:52;53982.94;;;-146.10;100.00
12763;BME280;6445;52.490;13.378;2023-04-25T06:19:18;54063.00;;;-146.10;100.00
12763;BME280;6445;52.490;13.378;2023-04-25T06:21:44;54139.06;;;-146.10;100.00
12763;BME280;6445;52.490;13.378;2023-04-25T06:24:09;53918.91;;;-146.10;100.00
12763;BME280;6445;52.490;13.378;2023-04-25T06:26:34;53572.66;;;-146.10;100.00
12763;BME280;6445;52.490;13.378;2023-04-25T06:29:00;53302.50;;;-146.10;100.00
12763;BME280;6445;52.490;13.378;2023-04-25T06:31:25;53226.47;;;-146.10;100.00
12763;BME280;6445;52.490;13.378;2023-04-25T06:33:50;53374.53;;;-146.10;100.00
12763;BME280;6445;52.490;13.378;2023-04-25T06:36:19;53568.66;;;-146.10;100.00
12763;BME280;6445;52.490;13.378;2023-04-25T06:38:49;53602.69;;;-146.10;100.00
12763;BME280;6445;52.490;13.378;2023-04-25T06:41:15;53368.53;;;-146.10;100.00
12763;BME280;6445;52.490;13.378;2023-04-25T06:43:40;53670.72;;;-146.10;100.00
12763;BME280;6445;52.490;13.378;2023-04-25T06:46:05;54010.97;;;-146.10;100.00
12763;BME280;6445;52.490;13.378;2023-04-25T06:48:30;54081.03;;;-146.10;100.00
12763;BME280;6445;52.490;13.378;2023-04-25T06:50:56;54006.97;;;-146.10;100.00
12763;BME280;6445;52.490;13.378;2023-04-25T06:53:21;54105.03;;;-146.10;100.00
12763;BME280;6445;52.490;13.378;2023-04-25T06:55:46;54699.56;;;-146.10;100.00
12763;BME280;6445;52.490;13.378;2023-04-25T06:58:12;54257.16;;;-146.10;100.00
12763;BME280;6445;52.490;13.378;2023-04-25T07:00:37;54401.28;;;-146.10;100.00
12763;BME280;6445;52.490;13.378;2023-04-25T07:03:02;55017.88;;;-146.10;100.00
12763;BME280;6445;52.490;13.378;2023-04-25T07:05:28;54663.53;;;-146.10;100.00
12763;BME280;6445;52.490;13.378;2023-04-25T07:07:53;54549.41;;;-146.10;100.00
12763;BME280;6445;52.490;13.378;2023-04-25T07:10:18;53994.97;;;-146.10;100.00
12763;BME280;6445;52.490;13.378;2023-04-25T07:12:43;54063.00;;;-146.10;100.00
12763;BME280;6445;52.490;13.378;2023-04-25T07:15:09;54241.16;;;-146.10;100.00
12763;BME280;6445;52.490;13.378;2023-04-25T07:17:35;53950.94;;;-146.10;100.00
12763;BME280;6445;52.490;13.378;2023-04-25T07:20:00;54683.53;;;-146.10;100.00
12763;BME280;6445;52.490;13.378;2023-04-25T07:22:26;57258.75;;;-146.10;100.00
12763;BME280;6445;52.490;13.378;2023-04-25T07:24:51;62674.97;;;-146.10;100.00
12763;BME280;6445;52.490;13.378;2023-04-25T07:27:18;67429.75;;;-146.10;100.00
12763;BME280;6445;52.490;13.378;2023-04-25T07:29:43;69504.84;;;-146.10;100.00
12763;BME280;6445;52.490;13.378;2023-04-25T07:32:08;65020.53;;;-146.10;100.00
12763;BME280;6445;52.490;13.378;2023-04-25T07:34:35;63993.03;;;-146.10;100.00
12763;BME280;6445;52.490;13.378;2023-04-25T07:37:02;62442.28;;;-146.10;100.00
12763;BME280;6445;52.490;13.378;2023-04-25T07:39:27;61636.06;;;-146.10;100.00
12763;BME280;6445;52.490;13.378;2023-04-25T07:41:52;59458.81;;;-146.10;100.00
12763;BME280;6445;52.490;13.378;2023-04-25T07:44:18;58540.97;;;-146.10;100.00
12763;BME280;6445;52.490;13.378;2023-04-25T07:46:43;57278.78;;;-146.10;100.00
12763;BME280;6445;52.490;13.378;2023-04-25T07:49:08;55568.47;;;-146.10;100.00
12763;BME280;6445;52.490;13.378;2023-04-25T07:51:33;53758.78;;;-146.10;100.00
12763;BME280;6445;52.490;13.378;2023-04-25T07:53:59;53900.91;;;-146.10;100.00
12763;BME280;6445;52.490;13.378;2023-04-25T07:56:25;54435.31;;;-146.10;100.00
12763;BME280;6445;52.490;13.378;2023-04-25T07:58:50;53266.47;;;-146.10;100.00
12763;BME280;6445;52.490;13.378;2023-04-25T08:01:16;52322.06;;;-146.10;98.31
12763;BME280;6445;52.490;13.378;2023-04-25T08:03:41;51935.94;;;-146.10;93.80
12763;BME280;6445;52.490;13.378;2023-04-25T08:06:06;51835.94;;;-146.10;87.41
12763;BME280;6445;52.490;13.378;2023-04-25T08:08:32;51799.94;;;-146.10;83.88
12763;BME280;6445;52.490;13.378;2023-04-25T08:10:57;51797.91;;;-146.10;81.72
12763;BME280;6445;52.490;13.378;2023-04-25T08:13:22;51769.91;;;-146.10;78.53
12763;BME280;6445;52.490;13.378;2023-04-25T08:15:47;51823.94;;;-146.10;74.64
12763;BME280;6445;52.490;13.378;2023-04-25T08:18:13;51827.94;;;-146.10;73.08
12763;BME280;6445;52.490;13.378;2023-04-25T08:20:38;51825.94;;;-146.10;74.68
12763;BME280;6445;52.490;13.378;2023-04-25T08:23:03;51839.94;;;-146.10;71.40
12763;BME280;6445;52.490;13.378;2023-04-25T08:25:28;51871.94;;;-146.10;68.14
12763;BME280;6445;52.490;13.378;2023-04-25T08:27:54;51923.94;;;-146.10;59.96
12763;BME280;6445;52.490;13.378;2023-04-25T08:30:19;51935.94;;;-146.10;58.00
12763;BME280;6445;52.490;13.378;2023-04-25T08:32:45;51981.97;;;-146.10;55.63
12763;BME280;6445;52.490;13.378;2023-04-25T08:35:11;51947.97;;;-146.10;55.51
12763;BME280;6445;52.490;13.378;2023-04-25T08:37:36;51947.97;;;-146.10;57.12
12763;BME280;6445;52.490;13.378;2023-04-25T08:40:01;51925.94;;;-146.10;57.87
12763;BME280;6445;52.490;13.378;2023-04-25T08:42:29;51915.94;;;-146.10;58.18
12763;BME280;6445;52.490;13.378;2023-04-25T08:44:57;51895.94;;;-146.10;59.13
12763;BME280;6445;52.490;13.378;2023-04-25T08:47:24;51881.94;;;-146.10;58.82
12763;BME280;6445;52.490;13.378;2023-04-25T08:49:49;51877.94;;;-146.10;58.77
12763;BME280;6445;52.490;13.378;2023-04-25T08:52:21;51887.94;;;-146.10;55.02
12763;BME280;6445;52.490;13.378;2023-04-25T08:54:48;51963.97;;;-146.10;51.48
12763;BME280;6445;52.490;13.378;2023-04-25T08:57:14;52017.97;;;-146.10;43.07
12763;BME280;6445;52.490;13.378;2023-04-25T08:59:40;51999.97;;;-146.10;41.94
12763;BME280;6445;52.490;13.378;2023-04-25T09:02:10;52025.97;;;-146.10;40.88
12763;BME280;6445;52.490;13.378;2023-04-25T09:04:39;52156.00;;;-146.10;35.05
12763;BME280;6445;52.490;13.378;2023-04-25T09:07:05;52134.00;;;-146.10;33.20
12763;BME280;6445;52.490;13.378;2023-04-25T09:09:31;52160.00;;;-146.10;33.75
12763;BME280;6445;52.490;13.378;2023-04-25T09:11:56;52130.00;;;-146.10;34.91
12763;BME280;6445;52.490;13.378;2023-04-25T09:14:23;52142.00;;;-146.10;33.86
12763;BME280;6445;52.490;13.378;2023-04-25T09:19:23;52116.00;;;-146.10;32.88
12763;BME280;6445;52.490;13.378;2023-04-25T09:21:49;52076.00;;;-146.10;33.56
12763;BME280;6445;52.490;13.378;2023-04-25T09:24:14;52202.03;;;-146.10;31.68
12763;BME280;6445;52.490;13.378;2023-04-25T09:26:40;52210.03;;;-146.10;30.74
12763;BME280;6445;52.490;13.378;2023-04-25T09:29:06;52184.03;;;-146.10;30.78
12763;BME280;6445;52.490;13.378;2023-04-25T09:31:34;52254.03;;;-146.10;30.22
12763;BME280;6445;52.490;13.378;2023-04-25T09:34:00;52290.06;;;-146.10;29.07
12763;BME280;6445;52.490;13.378;2023-04-25T09:36:29;52260.03;;;-146.10;30.13
12763;BME280;6445;52.490;13.378;2023-04-25T09:38:55;52160.00;;;-146.10;31.53
12763;BME280;6445;52.490;13.378;2023-04-25T09:41:24;52084.00;;;-146.10;32.98
12763;BME280;6445;52.490;13.378;2023-04-25T09:43:50;52015.97;;;-146.10;34.93
12763;BME280;6445;52.490;13.378;2023-04-25T09:46:15;51989.97;;;-146.10;36.89
12763;BME280;6445;52.490;13.378;2023-04-25T09:48:48;51993.97;;;-146.10;38.06
12763;BME280;6445;52.490;13.378;2023-04-25T09:51:14;52039.97;;;-146.10;36.95
12763;BME280;6445;52.490;13.378;2023-04-25T09:53:41;51985.97;;;-146.10;37.06
12763;BME280;6445;52.490;13.378;2023-04-25T09:56:09;52023.97;;;-146.10;35.92
12763;BME280;6445;52.490;13.378;2023-04-25T09:58:36;52029.97;;;-146.10;35.94
12763;BME280;6445;52.490;13.378;2023-04-25T10:01:03;52053.97;;;-146.10;34.76
12763;BME280;6445;52.490;13.378;2023-04-25T10:03:34;52063.97;;;-146.10;35.02
12763;BME280;6445;52.490;13.378;2023-04-25T10:06:01;52011.97;;;-146.10;35.42
12763;BME280;6445;52.490;13.378;2023-04-25T10:08:35;52045.97;;;-146.10;34.74
12763;BME280;6445;52.490;13.378;2023-04-25T10:11:02;52047.97;;;-146.10;34.77
12763;BME280;6445;52.490;13.378;2023-04-25T10:13:29;52031.97;;;-146.10;34.95
12763;BME280;6445;52.490;13.378;2023-04-25T10:15:57;52037.97;;;-146.10;34.61
12763;BME280;6445;52.490;13.378;2023-04-25T10:18:23;52031.97;;;-146.10;34.18
12763;BME280;6445;52.490;13.378;2023-04-25T10:20:49;51997.97;;;-146.10;35.29
12763;BME280;6445;52.490;13.378;2023-04-25T10:23:15;51969.97;;;-146.10;36.12
12763;BME280;6445;52.490;13.378;2023-04-25T10:25:42;51949.97;;;-146.10;35.98
12763;BME280;6445;52.490;13.378;2023-04-25T10:28:07;51915.94;;;-146.10;37.34
12763;BME280;6445;52.490;13.378;2023-04-25T10:30:33;51913.94;;;-146.10;38.00
12763;BME280;6445;52.490;13.378;2023-04-25T10:32:59;51899.94;;;-146.10;37.97
12763;BME280;6445;52.490;13.378;2023-04-25T10:35:27;51907.94;;;-146.10;38.59
12763;BME280;6445;52.490;13.378;2023-04-25T10:38:13;51911.94;;;-146.10;38.66
12763;BME280;6445;52.490;13.378;2023-04-25T10:40:39;51915.94;;;-146.10;39.23
12763;BME280;6445;52.490;13.378;2023-04-25T10:43:33;51911.94;;;-146.10;39.70
12763;BME280;6445;52.490;13.378;2023-04-25T10:45:59;51907.94;;;-146.10;40.41
12763;BME280;6445;52.490;13.378;2023-04-25T10:48:31;51915.94;;;-146.10;39.78
12763;BME280;6445;52.490;13.378;2023-04-25T10:51:09;51929.94;;;-146.10;40.02
12763;BME280;6445;52.490;13.378;2023-04-25T10:53:35;51901.94;;;-146.10;40.15
12763;BME280;6445;52.490;13.378;2023-04-25T10:56:09;51917.94;;;-146.10;40.01
12763;BME280;6445;52.490;13.378;2023-04-25T10:58:34;51915.94;;;-146.10;40.65
12763;BME280;6445;52.490;13.378;2023-04-25T11:01:01;51895.94;;;-146.10;40.36
12763;BME280;6445;52.490;13.378;2023-04-25T11:03:26;51953.97;;;-146.10;39.50
12763;BME280;6445;52.490;13.378;2023-04-25T11:05:51;51951.97;;;-146.10;38.44
12763;BME280;6445;52.490;13.378;2023-04-25T11:08:22;51935.94;;;-146.10;38.04
12763;BME280;6445;52.490;13.378;2023-04-25T11:10:51;51953.97;;;-146.10;38.43
12763;BME280;6445;52.490;13.378;2023-04-25T11:13:20;51919.94;;;-146.10;38.32
12763;BME280;6445;52.490;13.378;2023-04-25T11:15:45;51939.94;;;-146.10;38.06
12763;BME280;6445;52.490;13.378;2023-04-25T11:18:15;51943.97;;;-146.10;38.75
12763;BME280;6445;52.490;13.378;2023-04-25T11:20:43;51937.94;;;-146.10;39.18
12763;BME280;6445;52.490;13.378;2023-04-25T11:23:08;51907.94;;;-146.10;39.65
12763;BME280;6445;52.490;13.378;2023-04-25T11:25:33;51909.94;;;-146.10;40.80
12763;BME280;6445;52.490;13.378;2023-04-25T11:27:59;51901.94;;;-146.10;41.14
12763;BME280;6445;52.490;13.378;2023-04-25T11:30:26;51899.94;;;-146.10;40.48
12763;BME280;6445;52.490;13.378;2023-04-25T11:32:52;51905.94;;;-146.10;40.18
12763;BME280;6445;52.490;13.378;2023-04-25T11:35:18;51889.94;;;-146.10;39.21
12763;BME280;6445;52.490;13.378;2023-04-25T11:37:44;51879.94;;;-146.10;38.79
12763;BME280;6445;52.490;13.378;2023-04-25T11:40:10;51887.94;;;-146.10;38.22
12763;BME280;6445;52.490;13.378;2023-04-25T11:42:37;51879.94;;;-146.10;38.44
12763;BME280;6445;52.490;13.378;2023-04-25T11:45:03;51857.94;;;-146.10;38.53
12763;BME280;6445;52.490;13.378;2023-04-25T11:47:30;51895.94;;;-146.10;37.90
12763;BME280;6445;52.490;13.378;2023-04-25T11:50:01;51885.94;;;-146.10;37.72
12763;BME280;6445;52.490;13.378;2023-04-25T11:52:41;51885.94;;;-146.10;37.84
12763;BME280;6445;52.490;13.378;2023-04-25T11:55:12;51903.94;;;-146.10;37.19
12763;BME280;6445;52.490;13.378;2023-04-25T11:57:38;51899.94;;;-146.10;36.70
12763;BME280;6445;52.490;13.378;2023-04-25T12:00:06;51901.94;;;-146.10;37.17
12763;BME280;6445;52.490;13.378;2023-04-25T12:02:44;51877.94;;;-146.10;38.29
12763;BME280;6445;52.490;13.378;2023-04-25T12:05:11;51877.94;;;-146.10;38.38
12763;BME280;6445;52.490;13.378;2023-04-25T12:07:37;51895.94;;;-146.10;38.08
12763;BME280;6445;52.490;13.378;2023-04-25T12:10:13;51915.94;;;-146.10;39.03
12763;BME280;6445;52.490;13.378;2023-04-25T12:12:44;51943.97;;;-146.10;38.01
12763;BME280;6445;52.490;13.378;2023-04-25T12:15:13;51925.94;;;-146.10;38.20
12763;BME280;6445;52.490;13.378;2023-04-25T12:17:49;51931.94;;;-146.10;36.93
12763;BME280;6445;52.490;13.378;2023-04-25T12:20:20;51949.97;;;-146.10;36.38
12763;BME280;6445;52.490;13.378;2023-04-25T12:22:48;51975.97;;;-146.10;35.93
12763;BME280;6445;52.490;13.378;2023-04-25T12:28:21;52017.97;;;-146.10;33.54
12763;BME280;6445;52.490;13.378;2023-04-25T12:33:17;51981.97;;;-146.10;34.96
12763;BME280;6445;52.490;13.378;2023-04-25T12:35:42;52005.97;;;-146.10;32.74